sensor_id;sensor_type;location;lat;lon;timestamp;P1;durP1;ratioP1;P2;durP2;ratioP2
9334;SDS011;4706;41.844;26.082;2022-07-06T00:00:32;5.95;;;5.07;;
9334;SDS011;4706;41.844;26.082;2022-07-06T00:02:58;7.22;;;5.45;;
9334;SDS011;4706;41.844;26.082;2022-07-06T00:05:23;7.70;;;5.30;;
9334;SDS011;4706;41.844;26.082;2022-07-06T00:07:49;8.30;;;5.70;;
9334;SDS011;4706;41.844;26.082;2022-07-06T00:10:15;6.13;;;5.50;;
9334;SDS011;4706;41.844;26.082;2022-07-06T00:12:40;6.00;;;5.20;;
9334;SDS011;4706;41.844;26.082;2022-07-06T00:15:06;7.80;;;5.18;;
9334;SDS011;4706;41.844;26.082;2022-07-06T00:17:32;8.50;;;4.90;;
9334;SDS011;4706;41.844;26.082;2022-07-06T00:19:57;7.53;;;5.20;;
9334;SDS011;4706;41.844;26.082;2022-07-06T00:22:23;8.30;;;5.00;;
9334;SDS011;4706;41.844;26.082;2022-07-06T00:24:48;6.72;;;4.82;;
9334;SDS011;4706;41.844;26.082;2022-07-06T00:27:14;6.82;;;4.75;;
9334;SDS011;4706;41.844;26.082;2022-07-06T00:29:39;5.18;;;4.80;;
9334;SDS011;4706;41.844;26.082;2022-07-06T00:32:09;5.78;;;4.93;;
9334;SDS011;4706;41.844;26.082;2022-07-06T00:34:36;7.45;;;5.03;;
9334;SDS011;4706;41.844;26.082;2022-07-06T00:37:05;7.43;;;4.78;;
9334;SDS011;4706;41.844;26.082;2022-07-06T00:39:31;4.97;;;4.05;;
9334;SDS011;4706;41.844;26.082;2022-07-06T00:41:57;4.55;;;3.50;;
9334;SDS011;4706;41.844;26.082;2022-07-06T00:44:22;4.30;;;3.55;;
9334;SDS011;4706;41.844;26.082;2022-07-06T00:46:48;3.40;;;3.10;;
9334;SDS011;4706;41.844;26.082;2022-07-06T00:49:13;4.30;;;3.15;;
9334;SDS011;4706;41.844;26.082;2022-07-06T00:51:57;3.90;;;3.60;;
9334;SDS011;4706;41.844;26.082;2022-07-06T00:54:23;6.57;;;3.58;;
9334;SDS011;4706;41.844;26.082;2022-07-06T00:56:49;3.63;;;3.38;;
9334;SDS011;4706;41.844;26.082;2022-07-06T00:59:14;4.78;;;4.13;;
9334;SDS011;4706;41.844;26.082;2022-07-06T01:01:40;6.00;;;4.72;;
9334;SDS011;4706;41.844;26.082;2022-07-06T01:04:05;6.30;;;4.65;;
9334;SDS011;4706;41.844;26.082;2022-07-06T01:06:31;7.15;;;5.32;;
9334;SDS011;4706;41.844;26.082;2022-07-06T01:08:56;5.35;;;4.85;;
9334;SDS011;4706;41.844;26.082;2022-07-06T01:11:23;5.78;;;5.13;;
9334;SDS011;4706;41.844;26.082;2022-07-06T01:13:49;6.13;;;5.10;;
9334;SDS011;4706;41.844;26.082;2022-07-06T01:16:16;7.20;;;5.70;;
9334;SDS011;4706;41.844;26.082;2022-07-06T01:18:42;5.70;;;5.20;;
9334;SDS011;4706;41.844;26.082;2022-07-06T01:21:12;6.50;;;5.95;;
9334;SDS011;4706;41.844;26.082;2022-07-06T01:23:39;8.07;;;6.30;;
9334;SDS011;4706;41.844;26.082;2022-07-06T01:26:12;6.55;;;5.90;;
9334;SDS011;4706;41.844;26.082;2022-07-06T01:28:42;6.05;;;5.53;;
9334;SDS011;4706;41.844;26.082;2022-07-06T01:31:14;5.78;;;5.28;;
9334;SDS011;4706;41.844;26.082;2022-07-06T01:33:44;6.50;;;6.00;;
9334;SDS011;4706;41.844;26.082;2022-07-06T01:36:10;6.55;;;5.30;;
9334;SDS011;4706;41.844;26.082;2022-07-06T01:38:45;6.18;;;5.32;;
9334;SDS011;4706;41.844;26.082;2022-07-06T01:41:12;6.20;;;5.55;;
9334;SDS011;4706;41.844;26.082;2022-07-06T01:43:38;5.65;;;5.10;;
9334;SDS011;4706;41.844;26.082;2022-07-06T01:46:03;6.22;;;5.32;;
9334;SDS011;4706;41.844;26.082;2022-07-06T01:48:29;5.90;;;5.13;;
9334;SDS011;4706;41.844;26.082;2022-07-06T01:50:55;7.78;;;5.50;;
9334;SDS011;4706;41.844;26.082;2022-07-06T01:53:20;8.25;;;5.80;;
9334;SDS011;4706;41.844;26.082;2022-07-06T01:55:46;7.88;;;5.70;;
9334;SDS011;4706;41.844;26.082;2022-07-06T01:58:12;5.80;;;5.20;;
9334;SDS011;4706;41.844;26.082;2022-07-06T02:00:38;7.13;;;5.20;;
9334;SDS011;4706;41.844;26.082;2022-07-06T02:03:03;7.93;;;5.78;;
9334;SDS011;4706;41.844;26.082;2022-07-06T02:05:29;7.15;;;6.35;;
9334;SDS011;4706;41.844;26.082;2022-07-06T02:07:54;6.60;;;6.00;;
9334;SDS011;4706;41.844;26.082;2022-07-06T02:10:20;5.93;;;5.30;;
9334;SDS011;4706;41.844;26.082;2022-07-06T02:12:46;6.70;;;4.50;;
9334;SDS011;4706;41.844;26.082;2022-07-06T02:15:12;12.75;;;5.30;;
9334;SDS011;4706;41.844;26.082;2022-07-06T02:17:37;7.72;;;4.65;;
9334;SDS011;4706;41.844;26.082;2022-07-06T02:20:03;5.40;;;4.30;;
9334;SDS011;4706;41.844;26.082;2022-07-06T02:22:30;5.03;;;4.30;;
9334;SDS011;4706;41.844;26.082;2022-07-06T02:24:55;4.90;;;4.32;;
9334;SDS011;4706;41.844;26.082;2022-07-06T02:27:21;6.00;;;4.38;;
9334;SDS011;4706;41.844;26.082;2022-07-06T02:29:46;5.47;;;4.65;;
9334;SDS011;4706;41.844;26.082;2022-07-06T02:32:12;6.90;;;4.82;;
9334;SDS011;4706;41.844;26.082;2022-07-06T02:34:37;4.65;;;3.97;;
9334;SDS011;4706;41.844;26.082;2022-07-06T02:37:03;6.57;;;4.45;;
9334;SDS011;4706;41.844;26.082;2022-07-06T02:39:28;4.38;;;3.90;;
9334;SDS011;4706;41.844;26.082;2022-07-06T02:41:54;6.53;;;4.60;;
9334;SDS011;4706;41.844;26.082;2022-07-06T02:44:20;7.72;;;4.80;;
9334;SDS011;4706;41.844;26.082;2022-07-06T02:46:45;5.10;;;4.60;;
9334;SDS011;4706;41.844;26.082;2022-07-06T02:49:11;4.85;;;4.40;;
9334;SDS011;4706;41.844;26.082;2022-07-06T02:51:36;4.78;;;4.05;;
9334;SDS011;4706;41.844;26.082;2022-07-06T02:54:02;8.85;;;4.80;;
9334;SDS011;4706;41.844;26.082;2022-07-06T02:56:28;6.50;;;4.90;;
9334;SDS011;4706;41.844;26.082;2022-07-06T02:58:54;10.20;;;4.65;;
9334;SDS011;4706;41.844;26.082;2022-07-06T03:01:19;6.97;;;4.55;;
9334;SDS011;4706;41.844;26.082;2022-07-06T03:03:45;6.32;;;4.82;;
9334;SDS011;4706;41.844;26.082;2022-07-06T03:06:10;5.32;;;4.82;;
9334;SDS011;4706;41.844;26.082;2022-07-06T03:08:36;6.78;;;4.82;;
9334;SDS011;4706;41.844;26.082;2022-07-06T03:11:01;12.70;;;5.72;;
9334;SDS011;4706;41.844;26.082;2022-07-06T03:13:27;7.97;;;5.65;;
9334;SDS011;4706;41.844;26.082;2022-07-06T03:15:53;7.72;;;5.63;;
9334;SDS011;4706;41.844;26.082;2022-07-06T03:18:19;7.60;;;5.85;;
9334;SDS011;4706;41.844;26.082;2022-07-06T03:20:45;8.18;;;5.65;;
9334;SDS011;4706;41.844;26.082;2022-07-06T03:23:10;8.40;;;5.97;;
9334;SDS011;4706;41.844;26.082;2022-07-06T03:25:36;8.00;;;5.03;;
9334;SDS011;4706;41.844;26.082;2022-07-06T03:28:01;8.35;;;5.50;;
9334;SDS011;4706;41.844;26.082;2022-07-06T03:30:27;7.35;;;5.32;;
9334;SDS011;4706;41.844;26.082;2022-07-06T03:32:52;6.38;;;5.30;;
9334;SDS011;4706;41.844;26.082;2022-07-06T03:35:18;7.35;;;5.43;;
9334;SDS011;4706;41.844;26.082;2022-07-06T03:37:44;6.38;;;5.47;;
9334;SDS011;4706;41.844;26.082;2022-07-06T03:40:09;8.60;;;5.32;;
9334;SDS011;4706;41.844;26.082;2022-07-06T03:42:36;6.07;;;5.40;;
9334;SDS011;4706;41.844;26.082;2022-07-06T03:45:03;6.72;;;5.82;;
9334;SDS011;4706;41.844;26.082;2022-07-06T03:47:29;8.65;;;6.30;;
9334;SDS011;4706;41.844;26.082;2022-07-06T03:49:55;13.80;;;6.90;;
9334;SDS011;4706;41.844;26.082;2022-07-06T03:52:21;9.73;;;6.68;;
9334;SDS011;4706;41.844;26.082;2022-07-06T03:54:47;9.02;;;6.93;;
9334;SDS011;4706;41.844;26.082;2022-07-06T03:57:12;7.90;;;6.10;;
9334;SDS011;4706;41.844;26.082;2022-07-06T03:59:41;6.75;;;5.95;;
9334;SDS011;4706;41.844;26.082;2022-07-06T04:02:07;7.10;;;6.40;;
9334;SDS011;4706;41.844;26.082;2022-07-06T04:04:33;6.85;;;6.05;;
9334;SDS011;4706;41.844;26.082;2022-07-06T04:06:59;6.80;;;6.10;;
9334;SDS011;4706;41.844;26.082;2022-07-06T04:09:24;7.18;;;6.25;;
9334;SDS011;4706;41.844;26.082;2022-07-06T04:11:50;8.85;;;6.32;;
9334;SDS011;4706;41.844;26.082;2022-07-06T04:14:15;8.73;;;6.75;;
9334;SDS011;4706;41.844;26.082;2022-07-06T04:16:41;8.57;;;6.70;;
9334;SDS011;4706;41.844;26.082;2022-07-06T04:19:07;7.53;;;6.55;;
9334;SDS011;4706;41.844;26.082;2022-07-06T04:21:33;6.90;;;6.20;;
9334;SDS011;4706;41.844;26.082;2022-07-06T04:23:58;8.43;;;6.32;;
9334;SDS011;4706;41.844;26.082;2022-07-06T04:26:24;11.40;;;6.55;;
9334;SDS011;4706;41.844;26.082;2022-07-06T04:28:49;7.78;;;6.60;;
9334;SDS011;4706;41.844;26.082;2022-07-06T04:31:15;8.57;;;6.28;;
9334;SDS011;4706;41.844;26.082;2022-07-06T04:33:41;7.38;;;5.70;;
9334;SDS011;4706;41.844;26.082;2022-07-06T04:36:10;15.23;;;7.10;;
9334;SDS011;4706;41.844;26.082;2022-07-06T04:38:36;8.25;;;6.70;;
9334;SDS011;4706;41.844;26.082;2022-07-06T04:41:02;11.15;;;7.10;;
9334;SDS011;4706;41.844;26.082;2022-07-06T04:43:28;7.32;;;5.97;;
9334;SDS011;4706;41.844;26.082;2022-07-06T04:45:54;8.07;;;6.22;;
9334;SDS011;4706;41.844;26.082;2022-07-06T04:48:20;7.82;;;6.30;;
9334;SDS011;4706;41.844;26.082;2022-07-06T04:50:45;12.07;;;7.43;;
9334;SDS011;4706;41.844;26.082;2022-07-06T04:53:10;8.10;;;6.03;;
9334;SDS011;4706;41.844;26.082;2022-07-06T04:55:36;11.43;;;5.93;;
9334;SDS011;4706;41.844;26.082;2022-07-06T04:58:02;10.98;;;6.07;;
9334;SDS011;4706;41.844;26.082;2022-07-06T05:00:28;8.07;;;5.70;;
9334;SDS011;4706;41.844;26.082;2022-07-06T05:02:53;13.13;;;6.70;;
9334;SDS011;4706;41.844;26.082;2022-07-06T05:05:19;6.00;;;5.40;;
9334;SDS011;4706;41.844;26.082;2022-07-06T05:07:44;6.85;;;5.05;;
9334;SDS011;4706;41.844;26.082;2022-07-06T05:10:11;9.07;;;5.38;;
9334;SDS011;4706;41.844;26.082;2022-07-06T05:12:37;5.75;;;4.75;;
9334;SDS011;4706;41.844;26.082;2022-07-06T05:15:03;7.63;;;5.28;;
9334;SDS011;4706;41.844;26.082;2022-07-06T05:17:29;7.20;;;4.40;;
9334;SDS011;4706;41.844;26.082;2022-07-06T05:19:55;4.90;;;4.50;;
9334;SDS011;4706;41.844;26.082;2022-07-06T05:22:20;7.75;;;4.70;;
9334;SDS011;4706;41.844;26.082;2022-07-06T05:24:46;7.15;;;4.93;;
9334;SDS011;4706;41.844;26.082;2022-07-06T05:27:12;5.88;;;4.45;;
9334;SDS011;4706;41.844;26.082;2022-07-06T05:29:37;18.27;;;6.25;;
9334;SDS011;4706;41.844;26.082;2022-07-06T05:32:03;5.00;;;4.50;;
9334;SDS011;4706;41.844;26.082;2022-07-06T05:34:28;8.18;;;4.43;;
9334;SDS011;4706;41.844;26.082;2022-07-06T05:36:54;6.32;;;4.75;;
9334;SDS011;4706;41.844;26.082;2022-07-06T05:39:20;5.43;;;4.70;;
9334;SDS011;4706;41.844;26.082;2022-07-06T05:41:47;6.53;;;4.78;;
9334;SDS011;4706;41.844;26.082;2022-07-06T05:44:14;6.55;;;4.53;;
9334;SDS011;4706;41.844;26.082;2022-07-06T05:46:39;7.95;;;4.47;;
9334;SDS011;4706;41.844;26.082;2022-07-06T05:49:05;8.50;;;4.45;;
9334;SDS011;4706;41.844;26.082;2022-07-06T05:51:49;7.72;;;4.20;;
9334;SDS011;4706;41.844;26.082;2022-07-06T05:54:15;6.45;;;5.85;;
9334;SDS011;4706;41.844;26.082;2022-07-06T05:56:41;6.95;;;5.22;;
9334;SDS011;4706;41.844;26.082;2022-07-06T05:59:06;9.50;;;5.20;;
9334;SDS011;4706;41.844;26.082;2022-07-06T06:01:32;7.32;;;4.32;;
9334;SDS011;4706;41.844;26.082;2022-07-06T06:03:57;5.57;;;4.50;;
9334;SDS011;4706;41.844;26.082;2022-07-06T06:06:24;6.82;;;5.78;;
9334;SDS011;4706;41.844;26.082;2022-07-06T06:08:51;8.30;;;4.70;;
9334;SDS011;4706;41.844;26.082;2022-07-06T06:11:16;6.13;;;5.15;;
9334;SDS011;4706;41.844;26.082;2022-07-06T06:13:42;5.82;;;4.10;;
9334;SDS011;4706;41.844;26.082;2022-07-06T06:16:08;6.60;;;5.68;;
9334;SDS011;4706;41.844;26.082;2022-07-06T06:18:33;7.22;;;4.82;;
9334;SDS011;4706;41.844;26.082;2022-07-06T06:20:59;11.27;;;8.40;;
9334;SDS011;4706;41.844;26.082;2022-07-06T06:23:25;6.65;;;4.20;;
9334;SDS011;4706;41.844;26.082;2022-07-06T06:25:50;6.65;;;4.18;;
9334;SDS011;4706;41.844;26.082;2022-07-06T06:28:16;4.03;;;3.67;;
9334;SDS011;4706;41.844;26.082;2022-07-06T06:30:41;13.73;;;4.63;;
9334;SDS011;4706;41.844;26.082;2022-07-06T06:33:11;8.50;;;4.60;;
9334;SDS011;4706;41.844;26.082;2022-07-06T06:35:41;9.10;;;7.30;;
9334;SDS011;4706;41.844;26.082;2022-07-06T06:38:08;6.68;;;4.43;;
9334;SDS011;4706;41.844;26.082;2022-07-06T06:40:34;8.93;;;5.43;;
9334;SDS011;4706;41.844;26.082;2022-07-06T06:42:59;35.08;;;7.32;;
9334;SDS011;4706;41.844;26.082;2022-07-06T06:45:25;5.45;;;4.85;;
9334;SDS011;4706;41.844;26.082;2022-07-06T06:47:51;6.10;;;5.50;;
9334;SDS011;4706;41.844;26.082;2022-07-06T06:50:16;14.27;;;5.43;;
9334;SDS011;4706;41.844;26.082;2022-07-06T06:52:42;6.20;;;5.70;;
9334;SDS011;4706;41.844;26.082;2022-07-06T06:55:08;6.20;;;5.10;;
9334;SDS011;4706;41.844;26.082;2022-07-06T06:57:34;8.95;;;5.32;;
9334;SDS011;4706;41.844;26.082;2022-07-06T07:00:00;8.75;;;5.07;;
9334;SDS011;4706;41.844;26.082;2022-07-06T07:02:26;8.88;;;5.75;;
9334;SDS011;4706;41.844;26.082;2022-07-06T07:04:51;9.65;;;5.38;;
9334;SDS011;4706;41.844;26.082;2022-07-06T07:07:18;7.75;;;4.95;;
9334;SDS011;4706;41.844;26.082;2022-07-06T07:09:43;5.80;;;4.90;;
9334;SDS011;4706;41.844;26.082;2022-07-06T07:12:09;6.25;;;4.97;;
9334;SDS011;4706;41.844;26.082;2022-07-06T07:14:37;5.80;;;4.68;;
9334;SDS011;4706;41.844;26.082;2022-07-06T07:17:02;7.53;;;5.70;;
9334;SDS011;4706;41.844;26.082;2022-07-06T07:19:28;6.70;;;4.90;;
9334;SDS011;4706;41.844;26.082;2022-07-06T07:21:54;10.00;;;5.25;;
9334;SDS011;4706;41.844;26.082;2022-07-06T07:24:19;12.13;;;5.70;;
9334;SDS011;4706;41.844;26.082;2022-07-06T07:26:45;8.55;;;5.47;;
9334;SDS011;4706;41.844;26.082;2022-07-06T07:29:10;8.60;;;4.90;;
9334;SDS011;4706;41.844;26.082;2022-07-06T07:31:36;12.18;;;4.80;;
9334;SDS011;4706;41.844;26.082;2022-07-06T07:34:01;5.47;;;4.60;;
9334;SDS011;4706;41.844;26.082;2022-07-06T07:36:27;7.80;;;4.90;;
9334;SDS011;4706;41.844;26.082;2022-07-06T07:38:53;6.55;;;5.07;;
9334;SDS011;4706;41.844;26.082;2022-07-06T07:41:18;6.65;;;4.60;;
9334;SDS011;4706;41.844;26.082;2022-07-06T07:43:44;13.23;;;4.90;;
9334;SDS011;4706;41.844;26.082;2022-07-06T07:46:09;5.57;;;4.38;;
9334;SDS011;4706;41.844;26.082;2022-07-06T07:48:35;5.03;;;4.53;;
9334;SDS011;4706;41.844;26.082;2022-07-06T07:51:01;6.90;;;4.82;;
9334;SDS011;4706;41.844;26.082;2022-07-06T07:53:26;9.20;;;5.55;;
9334;SDS011;4706;41.844;26.082;2022-07-06T07:55:52;17.33;;;8.18;;
9334;SDS011;4706;41.844;26.082;2022-07-06T07:58:18;5.65;;;4.82;;
9334;SDS011;4706;41.844;26.082;2022-07-06T08:00:44;7.40;;;4.63;;
9334;SDS011;4706;41.844;26.082;2022-07-06T08:03:11;6.80;;;4.70;;
9334;SDS011;4706;41.844;26.082;2022-07-06T08:05:37;8.82;;;5.40;;
9334;SDS011;4706;41.844;26.082;2022-07-06T08:08:02;7.43;;;4.63;;
9334;SDS011;4706;41.844;26.082;2022-07-06T08:10:29;6.22;;;4.70;;
9334;SDS011;4706;41.844;26.082;2022-07-06T08:12:55;7.47;;;4.82;;
9334;SDS011;4706;41.844;26.082;2022-07-06T08:15:20;5.32;;;4.82;;
9334;SDS011;4706;41.844;26.082;2022-07-06T08:17:46;9.70;;;4.78;;
9334;SDS011;4706;41.844;26.082;2022-07-06T08:20:11;10.63;;;5.38;;
9334;SDS011;4706;41.844;26.082;2022-07-06T08:22:37;5.57;;;4.93;;
9334;SDS011;4706;41.844;26.082;2022-07-06T08:25:04;7.68;;;4.70;;
9334;SDS011;4706;41.844;26.082;2022-07-06T08:27:30;8.77;;;5.25;;
9334;SDS011;4706;41.844;26.082;2022-07-06T08:29:56;19.73;;;6.32;;
9334;SDS011;4706;41.844;26.082;2022-07-06T08:32:22;10.40;;;5.45;;
9334;SDS011;4706;41.844;26.082;2022-07-06T08:34:48;6.28;;;5.00;;
9334;SDS011;4706;41.844;26.082;2022-07-06T08:37:13;5.20;;;4.70;;
9334;SDS011;4706;41.844;26.082;2022-07-06T08:39:39;5.78;;;4.75;;
9334;SDS011;4706;41.844;26.082;2022-07-06T08:42:04;6.45;;;5.47;;
9334;SDS011;4706;41.844;26.082;2022-07-06T08:44:32;6.20;;;5.05;;
9334;SDS011;4706;41.844;26.082;2022-07-06T08:46:59;6.60;;;4.88;;
9334;SDS011;4706;41.844;26.082;2022-07-06T08:49:29;7.13;;;4.50;;
9334;SDS011;4706;41.844;26.082;2022-07-06T08:51:56;5.70;;;4.30;;
9334;SDS011;4706;41.844;26.082;2022-07-06T08:54:22;8.32;;;5.07;;
9334;SDS011;4706;41.844;26.082;2022-07-06T08:56:48;6.15;;;4.63;;
9334;SDS011;4706;41.844;26.082;2022-07-06T08:59:15;7.07;;;4.78;;
9334;SDS011;4706;41.844;26.082;2022-07-06T09:01:41;5.60;;;4.97;;
9334;SDS011;4706;41.844;26.082;2022-07-06T09:04:09;4.68;;;3.35;;
9334;SDS011;4706;41.844;26.082;2022-07-06T09:06:37;4.93;;;3.22;;
9334;SDS011;4706;41.844;26.082;2022-07-06T09:09:06;4.00;;;3.60;;
9334;SDS011;4706;41.844;26.082;2022-07-06T09:11:32;5.63;;;3.20;;
9334;SDS011;4706;41.844;26.082;2022-07-06T09:13:59;3.42;;;3.08;;
9334;SDS011;4706;41.844;26.082;2022-07-06T09:16:26;4.13;;;3.17;;
9334;SDS011;4706;41.844;26.082;2022-07-06T09:18:56;4.20;;;2.72;;
9334;SDS011;4706;41.844;26.082;2022-07-06T09:21:26;3.20;;;3.00;;
9334;SDS011;4706;41.844;26.082;2022-07-06T09:23:56;4.13;;;3.80;;
9334;SDS011;4706;41.844;26.082;2022-07-06T09:26:23;3.30;;;3.00;;
9334;SDS011;4706;41.844;26.082;2022-07-06T09:28:49;3.58;;;2.88;;
9334;SDS011;4706;41.844;26.082;2022-07-06T09:31:16;4.72;;;2.80;;
9334;SDS011;4706;41.844;26.082;2022-07-06T09:36:41;4.25;;;2.80;;
9334;SDS011;4706;41.844;26.082;2022-07-06T09:41:48;2.80;;;2.60;;
9334;SDS011;4706;41.844;26.082;2022-07-06T09:44:20;3.47;;;3.20;;
9334;SDS011;4706;41.844;26.082;2022-07-06T09:46:46;4.32;;;2.97;;
9334;SDS011;4706;41.844;26.082;2022-07-06T09:49:16;3.65;;;2.70;;
9334;SDS011;4706;41.844;26.082;2022-07-06T09:51:44;30.27;;;3.55;;
9334;SDS011;4706;41.844;26.082;2022-07-06T09:54:10;3.70;;;3.30;;
9334;SDS011;4706;41.844;26.082;2022-07-06T09:56:36;2.90;;;2.70;;
9334;SDS011;4706;41.844;26.082;2022-07-06T09:59:12;4.43;;;3.05;;
9334;SDS011;4706;41.844;26.082;2022-07-06T10:01:39;2.60;;;2.40;;
9334;SDS011;4706;41.844;26.082;2022-07-06T10:04:06;2.40;;;2.20;;
9334;SDS011;4706;41.844;26.082;2022-07-06T10:06:32;4.95;;;2.70;;
9334;SDS011;4706;41.844;26.082;2022-07-06T10:08:58;6.72;;;3.00;;
9334;SDS011;4706;41.844;26.082;2022-07-06T10:11:24;5.90;;;2.60;;
9334;SDS011;4706;41.844;26.082;2022-07-06T10:13:53;3.13;;;2.08;;
9334;SDS011;4706;41.844;26.082;2022-07-06T10:16:22;2.35;;;2.15;;
9334;SDS011;4706;41.844;26.082;2022-07-06T10:18:48;2.30;;;2.10;;
9334;SDS011;4706;41.844;26.082;2022-07-06T10:21:16;4.63;;;2.38;;
9334;SDS011;4706;41.844;26.082;2022-07-06T10:23:42;3.90;;;2.20;;
9334;SDS011;4706;41.844;26.082;2022-07-06T10:26:09;8.32;;;2.60;;
9334;SDS011;4706;41.844;26.082;2022-07-06T10:28:35;5.15;;;2.40;;
9334;SDS011;4706;41.844;26.082;2022-07-06T10:31:01;2.10;;;2.00;;
9334;SDS011;4706;41.844;26.082;2022-07-06T10:33:27;2.55;;;2.35;;
9334;SDS011;4706;41.844;26.082;2022-07-06T10:35:53;6.68;;;2.10;;
9334;SDS011;4706;41.844;26.082;2022-07-06T10:38:20;2.42;;;2.10;;
9334;SDS011;4706;41.844;26.082;2022-07-06T10:41:01;2.50;;;2.30;;
9334;SDS011;4706;41.844;26.082;2022-07-06T10:43:34;2.72;;;2.40;;
9334;SDS011;4706;41.844;26.082;2022-07-06T10:46:07;3.05;;;2.55;;
9334;SDS011;4706;41.844;26.082;2022-07-06T10:48:36;2.63;;;2.42;;
9334;SDS011;4706;41.844;26.082;2022-07-06T10:51:03;2.83;;;2.38;;
9334;SDS011;4706;41.844;26.082;2022-07-06T10:53:31;3.28;;;2.10;;
9334;SDS011;4706;41.844;26.082;2022-07-06T10:56:00;2.78;;;2.50;;
9334;SDS011;4706;41.844;26.082;2022-07-06T11:01:19;3.08;;;2.15;;
9334;SDS011;4706;41.844;26.082;2022-07-06T11:03:46;3.53;;;2.10;;
9334;SDS011;4706;41.844;26.082;2022-07-06T11:13:49;3.50;;;3.13;;
9334;SDS011;4706;41.844;26.082;2022-07-06T11:16:16;3.20;;;2.88;;
9334;SDS011;4706;41.844;26.082;2022-07-06T11:18:46;3.20;;;2.83;;
9334;SDS011;4706;41.844;26.082;2022-07-06T11:21:17;2.60;;;2.40;;
9334;SDS011;4706;41.844;26.082;2022-07-06T11:23:47;2.70;;;2.50;;
9334;SDS011;4706;41.844;26.082;2022-07-06T11:26:15;3.42;;;3.10;;
9334;SDS011;4706;41.844;26.082;2022-07-06T11:28:41;2.53;;;2.33;;
9334;SDS011;4706;41.844;26.082;2022-07-06T11:31:10;2.60;;;2.40;;
9334;SDS011;4706;41.844;26.082;2022-07-06T11:33:36;3.15;;;2.50;;
9334;SDS011;4706;41.844;26.082;2022-07-06T11:36:17;6.85;;;3.70;;
9334;SDS011;4706;41.844;26.082;2022-07-06T11:38:45;3.25;;;2.97;;
9334;SDS011;4706;41.844;26.082;2022-07-06T11:41:12;3.15;;;2.70;;
9334;SDS011;4706;41.844;26.082;2022-07-06T11:43:43;3.15;;;2.78;;
9334;SDS011;4706;41.844;26.082;2022-07-06T11:48:48;5.18;;;2.67;;
9334;SDS011;4706;41.844;26.082;2022-07-06T11:51:15;7.38;;;3.42;;
9334;SDS011;4706;41.844;26.082;2022-07-06T11:53:44;4.22;;;2.83;;
9334;SDS011;4706;41.844;26.082;2022-07-06T11:56:11;5.00;;;2.40;;
9334;SDS011;4706;41.844;26.082;2022-07-06T11:58:39;4.93;;;2.78;;
9334;SDS011;4706;41.844;26.082;2022-07-06T12:01:08;5.68;;;2.60;;
9334;SDS011;4706;41.844;26.082;2022-07-06T12:03:35;4.00;;;2.80;;
9334;SDS011;4706;41.844;26.082;2022-07-06T12:06:02;2.80;;;2.50;;
9334;SDS011;4706;41.844;26.082;2022-07-06T12:08:29;2.20;;;2.10;;
9334;SDS011;4706;41.844;26.082;2022-07-06T12:10:55;2.42;;;2.25;;
9334;SDS011;4706;41.844;26.082;2022-07-06T12:13:22;3.28;;;2.38;;
9334;SDS011;4706;41.844;26.082;2022-07-06T12:15:49;3.42;;;2.72;;
9334;SDS011;4706;41.844;26.082;2022-07-06T12:18:15;10.75;;;3.08;;
9334;SDS011;4706;41.844;26.082;2022-07-06T12:20:41;3.53;;;2.30;;
9334;SDS011;4706;41.844;26.082;2022-07-06T12:23:07;4.25;;;2.47;;
9334;SDS011;4706;41.844;26.082;2022-07-06T12:25:33;7.00;;;2.90;;
9334;SDS011;4706;41.844;26.082;2022-07-06T12:28:00;3.65;;;2.58;;
9334;SDS011;4706;41.844;26.082;2022-07-06T12:30:26;3.70;;;2.40;;
9334;SDS011;4706;41.844;26.082;2022-07-06T12:35:44;4.43;;;2.80;;
9334;SDS011;4706;41.844;26.082;2022-07-06T12:38:09;6.32;;;3.00;;
9334;SDS011;4706;41.844;26.082;2022-07-06T12:40:36;6.10;;;3.20;;
9334;SDS011;4706;41.844;26.082;2022-07-06T12:43:05;2.88;;;2.67;;
9334;SDS011;4706;41.844;26.082;2022-07-06T12:45:30;3.50;;;3.20;;
9334;SDS011;4706;41.844;26.082;2022-07-06T12:48:00;3.85;;;3.08;;
9334;SDS011;4706;41.844;26.082;2022-07-06T12:50:46;4.25;;;3.15;;
9334;SDS011;4706;41.844;26.082;2022-07-06T12:53:25;4.53;;;3.10;;
9334;SDS011;4706;41.844;26.082;2022-07-06T12:56:10;6.82;;;3.30;;
9334;SDS011;4706;41.844;26.082;2022-07-06T12:58:36;6.18;;;3.30;;
9334;SDS011;4706;41.844;26.082;2022-07-06T13:01:02;4.75;;;3.47;;
9334;SDS011;4706;41.844;26.082;2022-07-06T13:03:27;9.57;;;3.55;;
9334;SDS011;4706;41.844;26.082;2022-07-06T13:05:53;3.70;;;3.28;;
9334;SDS011;4706;41.844;26.082;2022-07-06T13:08:18;5.00;;;3.72;;
9334;SDS011;4706;41.844;26.082;2022-07-06T13:10:44;7.60;;;6.93;;
9334;SDS011;4706;41.844;26.082;2022-07-06T13:13:10;5.53;;;3.63;;
9334;SDS011;4706;41.844;26.082;2022-07-06T13:15:36;3.63;;;3.25;;
9334;SDS011;4706;41.844;26.082;2022-07-06T13:18:01;3.90;;;3.50;;
9334;SDS011;4706;41.844;26.082;2022-07-06T13:20:27;63.40;;;8.93;;
9334;SDS011;4706;41.844;26.082;2022-07-06T13:22:54;4.85;;;3.40;;
9334;SDS011;4706;41.844;26.082;2022-07-06T13:25:19;5.47;;;3.38;;
9334;SDS011;4706;41.844;26.082;2022-07-06T13:27:45;5.20;;;3.25;;
9334;SDS011;4706;41.844;26.082;2022-07-06T13:30:10;7.95;;;3.58;;
9334;SDS011;4706;41.844;26.082;2022-07-06T13:32:36;4.20;;;3.03;;
9334;SDS011;4706;41.844;26.082;2022-07-06T13:35:02;4.53;;;4.10;;
9334;SDS011;4706;41.844;26.082;2022-07-06T13:37:28;5.28;;;3.85;;
9334;SDS011;4706;41.844;26.082;2022-07-06T13:39:53;5.60;;;4.22;;
9334;SDS011;4706;41.844;26.082;2022-07-06T13:42:19;7.90;;;4.22;;
9334;SDS011;4706;41.844;26.082;2022-07-06T13:44:45;8.70;;;4.22;;
9334;SDS011;4706;41.844;26.082;2022-07-06T13:47:10;8.48;;;4.50;;
9334;SDS011;4706;41.844;26.082;2022-07-06T13:49:36;4.38;;;3.92;;
9334;SDS011;4706;41.844;26.082;2022-07-06T13:52:02;16.77;;;5.18;;
9334;SDS011;4706;41.844;26.082;2022-07-06T13:54:28;4.30;;;4.00;;
9334;SDS011;4706;41.844;26.082;2022-07-06T13:56:54;3.63;;;3.30;;
9334;SDS011;4706;41.844;26.082;2022-07-06T13:59:21;5.78;;;3.47;;
9334;SDS011;4706;41.844;26.082;2022-07-06T14:01:46;4.95;;;3.38;;
9334;SDS011;4706;41.844;26.082;2022-07-06T14:04:12;5.50;;;3.60;;
9334;SDS011;4706;41.844;26.082;2022-07-06T14:06:37;5.07;;;3.35;;
9334;SDS011;4706;41.844;26.082;2022-07-06T14:09:03;5.25;;;3.83;;
9334;SDS011;4706;41.844;26.082;2022-07-06T14:11:28;4.85;;;4.10;;
9334;SDS011;4706;41.844;26.082;2022-07-06T14:13:54;3.75;;;3.45;;
9334;SDS011;4706;41.844;26.082;2022-07-06T14:16:19;4.95;;;3.78;;
9334;SDS011;4706;41.844;26.082;2022-07-06T14:18:45;4.28;;;3.88;;
9334;SDS011;4706;41.844;26.082;2022-07-06T14:21:11;4.05;;;3.75;;
9334;SDS011;4706;41.844;26.082;2022-07-06T14:23:36;4.53;;;4.13;;
9334;SDS011;4706;41.844;26.082;2022-07-06T14:26:02;4.32;;;3.80;;
9334;SDS011;4706;41.844;26.082;2022-07-06T14:28:27;4.45;;;4.05;;
9334;SDS011;4706;41.844;26.082;2022-07-06T14:30:53;4.47;;;4.07;;
9334;SDS011;4706;41.844;26.082;2022-07-06T14:33:18;6.70;;;4.80;;
9334;SDS011;4706;41.844;26.082;2022-07-06T14:35:45;5.20;;;4.32;;
9334;SDS011;4706;41.844;26.082;2022-07-06T14:38:13;4.80;;;3.75;;
9334;SDS011;4706;41.844;26.082;2022-07-06T14:40:39;4.30;;;3.90;;
9334;SDS011;4706;41.844;26.082;2022-07-06T14:43:05;4.45;;;4.07;;
9334;SDS011;4706;41.844;26.082;2022-07-06T14:45:31;5.95;;;4.32;;
9334;SDS011;4706;41.844;26.082;2022-07-06T14:47:57;4.97;;;4.50;;
9334;SDS011;4706;41.844;26.082;2022-07-06T14:50:23;5.10;;;4.70;;
9334;SDS011;4706;41.844;26.082;2022-07-06T14:52:50;4.70;;;4.30;;
9334;SDS011;4706;41.844;26.082;2022-07-06T14:55:17;5.32;;;4.68;;
9334;SDS011;4706;41.844;26.082;2022-07-06T14:57:43;5.38;;;4.70;;
9334;SDS011;4706;41.844;26.082;2022-07-06T15:00:08;9.00;;;5.50;;
9334;SDS011;4706;41.844;26.082;2022-07-06T15:02:35;7.90;;;6.18;;
9334;SDS011;4706;41.844;26.082;2022-07-06T15:05:01;6.82;;;4.80;;
9334;SDS011;4706;41.844;26.082;2022-07-06T15:07:27;4.85;;;4.38;;
9334;SDS011;4706;41.844;26.082;2022-07-06T15:09:53;4.40;;;4.10;;
9334;SDS011;4706;41.844;26.082;2022-07-06T15:12:18;5.72;;;4.50;;
9334;SDS011;4706;41.844;26.082;2022-07-06T15:14:44;4.53;;;4.13;;
9334;SDS011;4706;41.844;26.082;2022-07-06T15:17:09;6.90;;;4.32;;